Time;durP1;ratioP1;P1;durP2;ratioP2;P2;SDS_P1;SDS_P2;PMS_P1;PMS_P2;Temp;Humidity;BMP_temperature;BMP_pressure;BME280_temperature;BME280_humidity;BME280_pressure;Samples;Min_cycle;Max_cycle;Signal;HPM_P1;HPM_P2
2023/09/27 00:01:37;;;;;;;;;;;15.10;99.90;;;;;;5114264;28;19923;-42
2023/09/27 00:04:03;;;;;;;;;;;15.10;99.90;;;;;;5114174;28;19927;-41
2023/09/27 00:06:28;;;;;;;;;;;15.10;99.90;;;;;;5113981;28;20442;-42
2023/09/27 00:08:54;;;;;;;;;;;15.00;99.90;;;;;;5114006;28;19924;-42
2023/09/27 00:11:19;;;;;;;;;;;15.00;99.90;;;;;;5115350;28;19923;-42
2023/09/27 00:13:45;;;;;;;;;;;15.00;99.90;;;;;;5118206;28;19924;-41
2023/09/27 00:16:10;;;;;;;;;;;15.00;99.90;;;;;;5117942;28;19924;-42
2023/09/27 00:18:36;;;;;;;;;;;15.00;99.90;;;;;;5117045;28;19989;-42
2023/09/27 00:21:01;;;;;;;;;;;15.00;99.90;;;;;;5117804;28;19924;-41
2023/09/27 00:23:27;;;;;;;;;;;15.00;99.90;;;;;;5117733;28;19930;-42
2023/09/27 00:25:52;;;;;;;;;;;15.00;99.90;;;;;;5116708;28;19927;-42
2023/09/27 00:28:18;;;;;;;;;;;15.00;99.90;;;;;;5117851;28;19924;-42
2023/09/27 00:30:44;;;;;;;;;;;15.00;99.90;;;;;;5116609;28;19924;-42
2023/09/27 00:33:09;;;;;;;;;;;15.00;99.90;;;;;;5116720;28;20349;-42
2023/09/27 00:35:35;;;;;;;;;;;15.00;99.90;;;;;;5117482;28;19931;-42
2023/09/27 00:38:00;;;;;;;;;;;15.00;99.90;;;;;;5117528;28;19930;-42
2023/09/27 00:40:26;;;;;;;;;;;15.00;99.90;;;;;;5117804;28;19924;-42
2023/09/27 00:42:52;;;;;;;;;;;15.00;99.90;;;;;;5117776;28;19923;-42
2023/09/27 00:45:18;;;;;;;;;;;15.00;99.90;;;;;;5117524;28;19924;-42
2023/09/27 00:47:44;;;;;;;;;;;15.10;99.90;;;;;;5117464;28;20370;-42
2023/09/27 00:50:10;;;;;;;;;;;15.00;99.90;;;;;;5117252;28;19931;-42
2023/09/27 00:52:37;;;;;;;;;;;15.10;99.90;;;;;;5115969;28;19924;-42
2023/09/27 00:55:03;;;;;;;;;;;15.10;99.90;;;;;;5117360;28;19950;-42
2023/09/27 00:57:29;;;;;;;;;;;15.10;99.90;;;;;;5117645;28;19924;-42
2023/09/27 00:59:54;;;;;;;;;;;15.10;99.90;;;;;;5116315;28;19924;-42
2023/09/27 01:02:20;;;;;;;;;;;15.10;99.90;;;;;;5117177;28;19924;-42
2023/09/27 01:04:46;;;;;;;;;;;15.10;99.90;;;;;;5116936;28;20302;-42
2023/09/27 01:07:11;;;;;;;;;;;15.10;99.90;;;;;;5116798;28;19976;-42
2023/09/27 01:09:37;;;;;;;;;;;15.10;99.90;;;;;;5117181;28;19930;-42
2023/09/27 01:12:03;;;;;;;;;;;15.10;99.90;;;;;;5117005;28;19927;-42
2023/09/27 01:14:30;;;;;;;;;;;15.20;99.90;;;;;;5116989;28;19924;-42
2023/09/27 01:16:55;;;;;;;;;;;15.20;99.90;;;;;;5116717;28;19977;-42
2023/09/27 01:19:21;;;;;;;;;;;15.20;99.90;;;;;;5116790;28;19927;-42
2023/09/27 01:21:46;;;;;;;;;;;15.10;99.90;;;;;;5115518;28;19978;-42
2023/09/27 01:24:12;;;;;;;;;;;15.10;99.90;;;;;;5117013;28;20367;-42
2023/09/27 01:26:39;;;;;;;;;;;15.10;99.90;;;;;;5116585;28;20462;-42
2023/09/27 01:29:04;;;;;;;;;;;15.10;99.90;;;;;;5116627;28;19924;-42
2023/09/27 01:31:31;;;;;;;;;;;15.10;99.90;;;;;;5116648;28;19931;-42
2023/09/27 01:33:57;;;;;;;;;;;15.10;99.90;;;;;;5116529;28;20074;-42
2023/09/27 01:36:22;;;;;;;;;;;15.10;99.90;;;;;;5116659;28;19928;-43
2023/09/27 01:38:48;;;;;;;;;;;15.00;99.90;;;;;;5116507;28;20282;-42
2023/09/27 01:41:13;;;;;;;;;;;14.90;99.90;;;;;;5116454;28;19978;-42
2023/09/27 01:43:39;;;;;;;;;;;14.90;99.90;;;;;;5116311;28;19924;-42
2023/09/27 01:46:04;;;;;;;;;;;14.90;99.90;;;;;;5116389;28;19924;-42
2023/09/27 01:48:30;;;;;;;;;;;14.90;99.90;;;;;;5116192;28;20263;-42
2023/09/27 01:50:55;;;;;;;;;;;14.90;99.90;;;;;;5115715;28;19924;-42
2023/09/27 01:53:21;;;;;;;;;;;14.80;99.90;;;;;;5116385;28;19969;-42
2023/09/27 01:55:47;;;;;;;;;;;14.80;99.90;;;;;;5116480;28;19923;-42
2023/09/27 01:58:13;;;;;;;;;;;14.80;99.90;;;;;;5116144;28;19973;-42
2023/09/27 02:00:38;;;;;;;;;;;14.70;99.90;;;;;;5115967;28;20306;-42
2023/09/27 02:03:04;;;;;;;;;;;14.70;99.90;;;;;;5115881;28;19923;-42
2023/09/27 02:05:30;;;;;;;;;;;14.60;99.90;;;;;;5115676;28;19974;-42
2023/09/27 02:07:56;;;;;;;;;;;14.60;99.90;;;;;;5116300;28;19924;-42
2023/09/27 02:10:22;;;;;;;;;;;14.60;99.90;;;;;;5115795;27;20283;-42
2023/09/27 02:12:48;;;;;;;;;;;14.60;99.90;;;;;;5115709;28;19924;-42
2023/09/27 02:15:14;;;;;;;;;;;14.60;99.90;;;;;;5115646;28;19931;-42
2023/09/27 02:17:40;;;;;;;;;;;14.60;99.90;;;;;;5114610;28;20394;-42
2023/09/27 02:20:07;;;;;;;;;;;14.50;99.90;;;;;;5115419;28;20035;-42
2023/09/27 02:22:36;;;;;;;;;;;14.50;99.90;;;;;;5115660;28;19927;-42
2023/09/27 02:25:02;;;;;;;;;;;14.60;99.90;;;;;;5115748;28;19931;-42
2023/09/27 02:27:28;;;;;;;;;;;14.50;99.90;;;;;;5115488;28;19924;-42
2023/09/27 02:29:53;;;;;;;;;;;14.50;99.90;;;;;;5115118;28;20416;-42
2023/09/27 02:32:19;;;;;;;;;;;14.40;99.90;;;;;;5114193;28;19969;-42
2023/09/27 02:34:45;;;;;;;;;;;14.40;99.90;;;;;;5114829;28;19931;-42
2023/09/27 02:37:11;;;;;;;;;;;14.40;99.90;;;;;;5115400;28;19924;-42
2023/09/27 02:39:36;;;;;;;;;;;14.40;99.90;;;;;;5115325;28;19944;-42
2023/09/27 02:42:03;;;;;;;;;;;14.40;99.90;;;;;;5114032;28;19928;-42
2023/09/27 02:44:29;;;;;;;;;;;14.40;99.90;;;;;;5115293;28;19930;-41
2023/09/27 02:46:55;;;;;;;;;;;14.40;99.90;;;;;;5115120;28;20372;-42
2023/09/27 02:49:20;;;;;;;;;;;14.40;99.90;;;;;;5115235;28;19975;-41
2023/09/27 02:51:49;;;;;;;;;;;14.40;99.90;;;;;;5114880;28;19978;-42
2023/09/27 02:54:14;;;;;;;;;;;14.40;99.90;;;;;;5115018;28;19969;-42
2023/09/27 02:56:40;;;;;;;;;;;14.40;99.90;;;;;;5114889;28;20336;-42
2023/09/27 02:59:06;;;;;;;;;;;14.50;99.90;;;;;;5114907;28;19924;-42
2023/09/27 03:01:32;;;;;;;;;;;14.40;99.90;;;;;;5114931;28;20027;-42
2023/09/27 03:03:58;;;;;;;;;;;14.40;99.90;;;;;;5115149;28;19931;-41
2023/09/27 03:06:23;;;;;;;;;;;14.40;99.90;;;;;;5114869;28;19931;-42
2023/09/27 03:08:50;;;;;;;;;;;14.40;99.90;;;;;;5113657;28;19930;-42
2023/09/27 03:11:16;;;;;;;;;;;14.40;99.90;;;;;;5113399;28;19935;-42
2023/09/27 03:13:44;;;;;;;;;;;14.40;99.90;;;;;;5114709;28;20290;-42
2023/09/27 03:16:10;;;;;;;;;;;14.40;99.90;;;;;;5114742;28;19924;-42
2023/09/27 03:18:36;;;;;;;;;;;14.40;99.90;;;;;;5114450;28;20286;-41
2023/09/27 03:21:01;;;;;;;;;;;14.30;99.90;;;;;;5114674;28;19977;-43
2023/09/27 03:23:27;;;;;;;;;;;14.30;99.90;;;;;;5114317;28;19928;-42
2023/09/27 03:25:53;;;;;;;;;;;14.20;99.90;;;;;;5114641;28;19975;-42
2023/09/27 03:28:18;;;;;;;;;;;14.20;99.90;;;;;;5114541;28;19977;-42
2023/09/27 03:30:46;;;;;;;;;;;14.20;99.90;;;;;;5114388;28;19928;-42
2023/09/27 03:33:11;;;;;;;;;;;14.20;99.90;;;;;;5114574;28;20275;-42
2023/09/27 03:35:37;;;;;;;;;;;14.20;99.90;;;;;;5114530;28;19969;-42
2023/09/27 03:38:03;;;;;;;;;;;14.20;99.90;;;;;;5114196;28;20268;-42
2023/09/27 03:40:28;;;;;;;;;;;14.20;99.90;;;;;;5114577;28;19923;-42
2023/09/27 03:42:54;;;;;;;;;;;14.20;99.90;;;;;;5114407;28;19969;-42
2023/09/27 03:45:20;;;;;;;;;;;14.20;99.90;;;;;;5115119;28;19976;-42
2023/09/27 03:47:46;;;;;;;;;;;14.20;99.90;;;;;;5118442;28;20382;-42
2023/09/27 03:50:12;;;;;;;;;;;14.20;99.90;;;;;;5118718;28;19945;-42
2023/09/27 03:52:40;;;;;;;;;;;14.20;99.90;;;;;;5118242;27;19928;-42
2023/09/27 03:55:06;;;;;;;;;;;14.20;99.90;;;;;;5118728;28;19924;-42
2023/09/27 03:57:32;;;;;;;;;;;14.20;99.90;;;;;;5118539;28;19923;-42
2023/09/27 03:59:57;;;;;;;;;;;14.10;99.90;;;;;;5118150;28;20404;-41
2023/09/27 04:02:23;;;;;;;;;;;14.20;99.90;;;;;;5118419;28;19928;-42
2023/09/27 04:04:48;;;;;;;;;;;14.10;99.90;;;;;;5118320;28;19924;-41
2023/09/27 04:07:15;;;;;;;;;;;14.10;99.90;;;;;;5118255;28;19931;-42
2023/09/27 04:09:41;;;;;;;;;;;14.10;99.90;;;;;;5117304;28;20002;-42
2023/09/27 04:12:06;;;;;;;;;;;14.10;99.90;;;;;;5118221;28;20398;-42
2023/09/27 04:14:32;;;;;;;;;;;14.10;99.90;;;;;;5117999;28;20294;-42
2023/09/27 04:17:01;;;;;;;;;;;14.10;99.90;;;;;;5117968;28;20398;-42
2023/09/27 04:19:27;;;;;;;;;;;14.00;99.90;;;;;;5118069;28;19968;-42
2023/09/27 04:21:52;;;;;;;;;;;14.00;99.90;;;;;;5117972;28;19932;-42
2023/09/27 04:24:18;;;;;;;;;;;14.00;99.90;;;;;;5117960;28;20404;-42
2023/09/27 04:26:44;;;;;;;;;;;14.00;99.90;;;;;;5116666;28;19927;-42
2023/09/27 04:29:10;;;;;;;;;;;14.00;99.90;;;;;;5117649;28;19924;-42
2023/09/27 04:31:35;;;;;;;;;;;14.00;99.90;;;;;;5117824;27;20394;-42
2023/09/27 04:34:01;;;;;;;;;;;14.00;99.90;;;;;;5117765;28;20031;-42
2023/09/27 04:36:27;;;;;;;;;;;14.00;99.90;;;;;;5117559;28;19928;-42
2023/09/27 04:38:53;;;;;;;;;;;14.00;99.90;;;;;;5117771;28;19979;-42
2023/09/27 04:41:20;;;;;;;;;;;14.10;99.90;;;;;;5116701;28;20366;-42
2023/09/27 04:43:46;;;;;;;;;;;14.10;99.90;;;;;;5117541;28;19927;-42
2023/09/27 04:46:13;;;;;;;;;;;14.10;99.90;;;;;;5116387;28;19927;-42
2023/09/27 04:48:38;;;;;;;;;;;14.10;99.90;;;;;;5117780;28;19977;-42
2023/09/27 04:51:04;;;;;;;;;;;14.10;99.90;;;;;;5117246;28;19924;-42
2023/09/27 04:53:37;;;;;;;;;;;14.10;99.90;;;;;;5117469;28;20030;-42
2023/09/27 04:56:06;;;;;;;;;;;14.10;99.90;;;;;;5117245;28;19976;-42
2023/09/27 04:58:31;;;;;;;;;;;14.10;99.90;;;;;;5117036;27;20454;-42
2023/09/27 05:00:57;;;;;;;;;;;14.10;99.90;;;;;;5117253;28;20014;-42
2023/09/27 05:03:23;;;;;;;;;;;14.10;99.90;;;;;;5116950;28;19996;-42
2023/09/27 05:05:48;;;;;;;;;;;14.10;99.90;;;;;;5117327;28;19930;-42
2023/09/27 05:08:14;;;;;;;;;;;14.10;99.90;;;;;;5116936;28;20434;-42
2023/09/27 05:10:39;;;;;;;;;;;14.00;99.90;;;;;;5116920;28;19924;-42
2023/09/27 05:13:05;;;;;;;;;;;14.00;99.90;;;;;;5115656;28;19927;-42
2023/09/27 05:15:33;;;;;;;;;;;14.00;99.90;;;;;;5116928;28;19927;-42
2023/09/27 05:17:59;;;;;;;;;;;14.00;99.90;;;;;;5117265;28;19969;-42
2023/09/27 05:20:25;;;;;;;;;;;14.00;99.90;;;;;;5116930;28;19978;-42
2023/09/27 05:22:51;;;;;;;;;;;14.00;99.90;;;;;;5116764;28;19924;-42
2023/09/27 05:25:17;;;;;;;;;;;14.00;99.90;;;;;;5115735;28;19924;-42
2023/09/27 05:27:42;;;;;;;;;;;14.00;99.90;;;;;;5116701;28;20043;-43
2023/09/27 05:30:09;;;;;;;;;;;14.00;99.90;;;;;;5117048;28;19979;-41
2023/09/27 05:32:34;;;;;;;;;;;13.90;99.90;;;;;;5116694;28;19923;-42
2023/09/27 05:35:00;;;;;;;;;;;13.90;99.90;;;;;;5116605;28;19924;-42
2023/09/27 05:37:25;;;;;;;;;;;13.80;99.90;;;;;;5116503;28;19930;-41
2023/09/27 05:39:51;;;;;;;;;;;13.80;99.90;;;;;;5116317;28;19934;-42
2023/09/27 05:42:16;;;;;;;;;;;13.80;99.90;;;;;;5115021;28;19967;-42
2023/09/27 05:44:42;;;;;;;;;;;13.80;99.90;;;;;;5116393;28;19928;-42
2023/09/27 05:47:07;;;;;;;;;;;13.80;99.90;;;;;;5116430;28;19924;-42
2023/09/27 05:49:34;;;;;;;;;;;13.80;99.90;;;;;;5116165;28;20019;-42
2023/09/27 05:51:59;;;;;;;;;;;13.80;99.90;;;;;;5116256;28;19923;-42
2023/09/27 05:54:25;;;;;;;;;;;13.70;99.90;;;;;;5116209;27;20371;-42
2023/09/27 05:56:53;;;;;;;;;;;13.70;99.90;;;;;;5115915;28;19924;-42
2023/09/27 05:59:18;;;;;;;;;;;13.70;99.90;;;;;;5116523;28;19924;-41
2023/09/27 06:01:44;;;;;;;;;;;13.70;99.90;;;;;;5115152;28;19931;-41
2023/09/27 06:04:10;;;;;;;;;;;13.70;99.90;;;;;;5116012;28;19994;-42
2023/09/27 06:06:36;;;;;;;;;;;13.70;99.90;;;;;;5116000;28;19924;-42
2023/09/27 06:09:05;;;;;;;;;;;13.70;99.90;;;;;;5115361;28;19946;-42
2023/09/27 06:11:32;;;;;;;;;;;13.70;99.90;;;;;;5115806;28;20291;-42
2023/09/27 06:13:58;;;;;;;;;;;13.80;99.90;;;;;;5115836;27;19924;-42
2023/09/27 06:16:24;;;;;;;;;;;13.90;99.90;;;;;;5115720;28;19931;-41
2023/09/27 06:18:50;;;;;;;;;;;13.90;99.90;;;;;;5115663;28;19924;-41
2023/09/27 06:21:15;;;;;;;;;;;14.00;99.90;;;;;;5114498;28;19935;-41
2023/09/27 06:23:41;;;;;;;;;;;14.00;99.90;;;;;;5115558;28;19924;-41
2023/09/27 06:26:07;;;;;;;;;;;14.00;99.90;;;;;;5115538;28;19930;-42
2023/09/27 06:28:33;;;;;;;;;;;14.10;99.90;;;;;;5115754;28;19924;-41
2023/09/27 06:30:59;;;;;;;;;;;14.10;99.90;;;;;;5115311;28;20285;-41
2023/09/27 06:33:25;;;;;;;;;;;14.10;99.90;;;;;;5115399;28;19927;-41
2023/09/27 06:35:51;;;;;;;;;;;14.10;99.90;;;;;;5115457;28;19985;-41
2023/09/27 06:38:21;;;;;;;;;;;14.20;99.90;;;;;;5115234;28;19969;-41
2023/09/27 06:40:48;;;;;;;;;;;14.20;99.90;;;;;;5114285;28;19923;-41
2023/09/27 06:43:14;;;;;;;;;;;14.20;99.90;;;;;;5115216;28;19931;-42
2023/09/27 06:45:40;;;;;;;;;;;14.20;99.90;;;;;;5115073;28;19924;-42
2023/09/27 06:48:06;;;;;;;;;;;14.20;99.90;;;;;;5114055;28;20014;-41
2023/09/27 06:50:32;;;;;;;;;;;14.20;99.90;;;;;;5115170;28;19923;-41
2023/09/27 06:52:58;;;;;;;;;;;14.20;99.90;;;;;;5114882;28;20321;-42
2023/09/27 06:55:23;;;;;;;;;;;14.20;99.90;;;;;;5114924;28;20345;-42
2023/09/27 06:57:52;;;;;;;;;;;14.30;99.90;;;;;;5114926;28;19977;-42
2023/09/27 07:00:24;;;;;;;;;;;14.30;99.90;;;;;;5115091;28;19927;-41
2023/09/27 07:02:50;;;;;;;;;;;14.30;99.90;;;;;;5115129;28;19923;-42
2023/09/27 07:05:16;;;;;;;;;;;14.40;99.90;;;;;;5114939;28;20306;-42
2023/09/27 07:07:42;;;;;;;;;;;14.40;99.90;;;;;;5114681;28;19930;-42
2023/09/27 07:10:08;;;;;;;;;;;14.50;99.90;;;;;;5114620;28;19935;-42
2023/09/27 07:12:34;;;;;;;;;;;14.50;99.90;;;;;;5114860;28;19928;-42
2023/09/27 07:14:59;;;;;;;;;;;14.50;99.90;;;;;;5114688;28;19923;-42
2023/09/27 07:17:25;;;;;;;;;;;14.60;99.90;;;;;;5115176;28;19924;-41
2023/09/27 07:19:51;;;;;;;;;;;14.70;99.90;;;;;;5113972;28;19923;-41
2023/09/27 07:22:17;;;;;;;;;;;14.70;99.90;;;;;;5114426;28;20006;-41
2023/09/27 07:24:43;;;;;;;;;;;14.70;99.90;;;;;;5114384;28;20413;-42
2023/09/27 07:27:08;;;;;;;;;;;14.80;99.90;;;;;;5114960;28;20022;-42
2023/09/27 07:29:34;;;;;;;;;;;14.80;99.90;;;;;;5114823;28;19923;-41
2023/09/27 07:32:00;;;;;;;;;;;14.90;99.90;;;;;;5114475;28;19923;-42
2023/09/27 07:34:25;;;;;;;;;;;14.90;99.90;;;;;;5114600;28;20373;-41
2023/09/27 07:36:51;;;;;;;;;;;15.00;99.90;;;;;;5114323;28;20390;-42
2023/09/27 07:39:17;;;;;;;;;;;15.10;99.90;;;;;;5114402;28;19923;-41
2023/09/27 07:41:44;;;;;;;;;;;15.10;99.90;;;;;;5114448;28;19928;-42
2023/09/27 07:44:10;;;;;;;;;;;15.10;99.90;;;;;;5114745;28;19968;-42
2023/09/27 07:46:36;;;;;;;;;;;15.20;99.90;;;;;;5114443;28;19924;-42
2023/09/27 07:49:01;;;;;;;;;;;15.20;99.90;;;;;;5114433;28;19931;-42
2023/09/27 07:51:27;;;;;;;;;;;15.20;99.90;;;;;;5114199;28;20362;-42
2023/09/27 07:53:54;;;;;;;;;;;15.30;99.90;;;;;;5114355;28;19928;-42
2023/09/27 07:56:20;;;;;;;;;;;15.30;99.90;;;;;;5114533;28;20019;-42
2023/09/27 07:58:47;;;;;;;;;;;15.30;99.90;;;;;;5114259;28;20374;-42
2023/09/27 08:01:12;;;;;;;;;;;15.40;99.90;;;;;;5113338;28;19931;-42
2023/09/27 08:03:38;;;;;;;;;;;15.50;99.90;;;;;;5113394;28;19923;-42
2023/09/27 08:06:04;;;;;;;;;;;15.50;99.90;;;;;;5114223;28;19997;-42
2023/09/27 08:08:30;;;;;;;;;;;15.50;99.90;;;;;;5114072;28;19928;-42
2023/09/27 08:10:57;;;;;;;;;;;15.60;99.90;;;;;;5114140;28;19976;-42
2023/09/27 08:13:23;;;;;;;;;;;15.70;99.90;;;;;;5114204;28;20370;-42
2023/09/27 08:15:51;;;;;;;;;;;15.70;99.90;;;;;;5113423;28;20014;-42
2023/09/27 08:18:17;;;;;;;;;;;15.70;99.90;;;;;;5114251;28;19924;-42
2023/09/27 08:20:43;;;;;;;;;;;15.80;99.90;;;;;;5114012;28;20302;-43
2023/09/27 08:23:08;;;;;;;;;;;15.90;99.90;;;;;;5113835;28;19924;-42
2023/09/27 08:25:36;;;;;;;;;;;15.90;99.90;;;;;;5114462;28;19924;-42
2023/09/27 08:28:03;;;;;;;;;;;16.00;99.90;;;;;;5113990;28;19938;-42
2023/09/27 08:30:28;;;;;;;;;;;16.10;99.90;;;;;;5113911;28;19989;-43
2023/09/27 08:32:54;;;;;;;;;;;16.20;99.90;;;;;;5116059;28;20427;-42
2023/09/27 08:35:20;;;;;;;;;;;16.20;99.90;;;;;;5117721;28;19967;-42
2023/09/27 08:37:46;;;;;;;;;;;16.30;99.90;;;;;;5117598;28;19924;-42
2023/09/27 08:40:15;;;;;;;;;;;16.40;99.90;;;;;;5116563;28;20286;-42
2023/09/27 08:42:41;;;;;;;;;;;16.40;99.90;;;;;;5117703;28;19924;-42
2023/09/27 08:45:16;;;;;;;;;;;16.50;99.90;;;;;;5117590;28;19924;-42
2023/09/27 08:47:44;;;;;;;;;;;16.50;99.90;;;;;;5117373;28;19978;-42
2023/09/27 08:50:11;;;;;;;;;;;16.50;99.90;;;;;;5117365;27;19928;-43
2023/09/27 08:52:38;;;;;;;;;;;16.60;99.90;;;;;;5117404;28;19923;-43
2023/09/27 08:55:06;;;;;;;;;;;16.70;99.90;;;;;;5117184;28;20343;-43
2023/09/27 08:57:32;;;;;;;;;;;16.70;99.90;;;;;;5117609;28;19946;-43
2023/09/27 08:59:59;;;;;;;;;;;16.80;99.90;;;;;;5117269;28;20014;-42
2023/09/27 09:02:26;;;;;;;;;;;16.80;99.90;;;;;;5116129;28;20027;-43
2023/09/27 09:04:51;;;;;;;;;;;16.90;99.90;;;;;;5117061;28;19927;-42
2023/09/27 09:07:18;;;;;;;;;;;17.00;99.90;;;;;;5117228;28;20375;-42
2023/09/27 09:09:45;;;;;;;;;;;17.10;99.90;;;;;;5116063;28;19928;-43
2023/09/27 09:12:12;;;;;;;;;;;17.20;99.90;;;;;;5117109;28;19930;-43
2023/09/27 09:14:49;;;;;;;;;;;17.20;99.90;;;;;;5117031;28;19931;-42
2023/09/27 09:17:18;;;;;;;;;;;17.30;99.90;;;;;;5116717;28;19924;-43
2023/09/27 09:19:46;;;;;;;;;;;17.30;99.90;;;;;;5116841;27;20457;-46
2023/09/27 09:22:12;;;;;;;;;;;17.40;99.90;;;;;;5116957;28;19969;-43
2023/09/27 09:24:42;;;;;;;;;;;17.50;99.90;;;;;;5115944;28;19923;-43
2023/09/27 09:27:10;;;;;;;;;;;17.60;99.90;;;;;;5116795;28;19931;-42
2023/09/27 09:29:48;;;;;;;;;;;17.70;99.90;;;;;;5116529;27;20002;-43
2023/09/27 09:32:20;;;;;;;;;;;17.80;99.90;;;;;;5116746;28;19938;-43
2023/09/27 09:34:48;;;;;;;;;;;17.80;99.90;;;;;;5116604;28;20263;-43
2023/09/27 09:37:23;;;;;;;;;;;17.90;99.90;;;;;;5116628;28;19928;-42
2023/09/27 09:39:50;;;;;;;;;;;17.90;99.90;;;;;;5116595;28;19924;-43
2023/09/27 09:42:34;;;;;;;;;;;18.10;99.90;;;;;;5116097;28;19928;-42
2023/09/27 09:45:00;;;;;;;;;;;18.10;99.90;;;;;;5115953;28;20294;-42
2023/09/27 09:47:28;;;;;;;;;;;18.20;99.90;;;;;;5116527;27;19946;-44
2023/09/27 09:49:54;;;;;;;;;;;18.20;99.90;;;;;;5116244;28;19973;-43
2023/09/27 09:52:24;;;;;;;;;;;18.30;99.90;;;;;;5116263;28;19923;-42
2023/09/27 09:54:51;;;;;;;;;;;18.40;99.90;;;;;;5116000;28;19924;-43
2023/09/27 09:57:19;;;;;;;;;;;18.50;99.90;;;;;;5116668;28;19985;-42
2023/09/27 10:00:25;;;;;;;;;;;18.60;99.90;;;;;;5116061;28;19930;-42
2023/09/27 10:03:01;;;;;;;;;;;18.60;99.90;;;;;;5116193;28;19928;-42
2023/09/27 10:05:30;;;;;;;;;;;18.80;99.90;;;;;;5116041;28;20039;-42
2023/09/27 10:07:55;;;;;;;;;;;18.80;99.90;;;;;;5116077;28;19924;-42
2023/09/27 10:10:22;;;;;;;;;;;18.80;99.90;;;;;;5115828;28;20022;-43
2023/09/27 10:12:49;;;;;;;;;;;18.80;99.90;;;;;;5116022;28;19924;-42
2023/09/27 10:15:21;;;;;;;;;;;18.80;99.90;;;;;;5115552;28;20409;-43
2023/09/27 10:17:47;;;;;;;;;;;18.80;99.90;;;;;;5115505;28;20034;-42
2023/09/27 10:20:13;;;;;;;;;;;18.80;99.90;;;;;;5115916;28;20402;-43
2023/09/27 10:22:40;;;;;;;;;;;18.90;99.90;;;;;;5115694;28;19923;-42
2023/09/27 10:25:26;;;;;;;;;;;18.90;99.90;;;;;;5115701;28;19924;-43
2023/09/27 10:28:01;;;;;;;;;;;18.90;99.90;;;;;;5115442;28;19932;-43
2023/09/27 10:30:48;;;;;;;;;;;19.00;99.90;;;;;;5115292;28;19928;-43
2023/09/27 10:33:16;;;;;;;;;;;19.10;99.90;;;;;;5115362;28;20332;-42
2023/09/27 10:35:42;;;;;;;;;;;19.20;99.90;;;;;;5115317;28;19923;-42
2023/09/27 10:38:10;;;;;;;;;;;19.20;99.90;;;;;;5115369;28;19923;-42
2023/09/27 10:40:46;;;;;;;;;;;19.20;99.90;;;;;;5115313;28;20011;-42
2023/09/27 10:43:40;;;;;;;;;;;19.20;99.90;;;;;;5115362;27;20432;-42
2023/09/27 10:46:07;;;;;;;;;;;19.20;99.90;;;;;;5115200;28;19967;-42
2023/09/27 10:48:33;;;;;;;;;;;19.20;99.90;;;;;;5115272;28;19927;-42
2023/09/27 10:50:58;;;;;;;;;;;19.10;99.90;;;;;;5114949;28;19977;-43
2023/09/27 10:53:24;;;;;;;;;;;19.10;99.90;;;;;;5114739;28;19931;-42
2023/09/27 10:55:50;;;;;;;;;;;19.10;99.90;;;;;;5115531;28;20333;-42
2023/09/27 10:58:17;;;;;;;;;;;19.10;99.90;;;;;;5115051;28;20354;-42
2023/09/27 11:01:00;;;;;;;;;;;19.20;99.90;;;;;;5115163;28;19924;-43
2023/09/27 11:03:29;;;;;;;;;;;19.20;99.90;;;;;;5114743;28;19931;-43
2023/09/27 11:05:55;;;;;;;;;;;19.20;99.90;;;;;;5114866;28;19937;-43
2023/09/27 11:08:22;;;;;;;;;;;19.20;99.90;;;;;;5114975;28;19996;-42
2023/09/27 11:10:48;;;;;;;;;;;19.20;99.90;;;;;;5114835;28;19923;-43
2023/09/27 11:13:14;;;;;;;;;;;19.20;99.90;;;;;;5114736;28;19980;-42
2023/09/27 11:15:40;;;;;;;;;;;19.20;99.90;;;;;;5114819;28;20395;-43
2023/09/27 11:18:07;;;;;;;;;;;19.10;99.90;;;;;;5114689;28;20022;-43
2023/09/27 11:20:33;;;;;;;;;;;19.10;99.90;;;;;;5114635;28;20405;-43
2023/09/27 11:22:59;;;;;;;;;;;19.10;99.90;;;;;;5114754;28;19923;-43
2023/09/27 11:25:25;;;;;;;;;;;19.10;99.90;;;;;;5114694;28;19924;-43
2023/09/27 11:27:51;;;;;;;;;;;19.10;99.90;;;;;;5114427;28;20382;-42
2023/09/27 11:30:22;;;;;;;;;;;19.10;99.90;;;;;;5114597;28;19930;-42
2023/09/27 11:32:49;;;;;;;;;;;19.20;99.90;;;;;;5114347;28;19924;-42
2023/09/27 11:35:18;;;;;;;;;;;19.10;99.90;;;;;;5114540;28;20362;-42
2023/09/27 11:37:43;;;;;;;;;;;19.10;99.90;;;;;;5114779;28;19935;-42
2023/09/27 11:40:09;;;;;;;;;;;19.20;99.90;;;;;;5113642;28;19924;-42
2023/09/27 11:42:35;;;;;;;;;;;19.20;99.90;;;;;;5114524;28;20034;-42
2023/09/27 11:45:09;;;;;;;;;;;19.20;99.90;;;;;;5114316;28;19982;-43
2023/09/27 11:47:48;;;;;;;;;;;19.20;99.90;;;;;;5113290;28;19923;-43
2023/09/27 11:50:14;;;;;;;;;;;19.20;99.90;;;;;;5114373;28;19954;-42
2023/09/27 11:52:40;;;;;;;;;;;19.20;99.90;;;;;;5113911;28;20335;-43
2023/09/27 11:55:06;;;;;;;;;;;19.30;99.90;;;;;;5114253;28;19923;-42
2023/09/27 11:57:31;;;;;;;;;;;19.30;99.90;;;;;;5114373;28;20014;-42
2023/09/27 11:59:57;;;;;;;;;;;19.30;99.90;;;;;;5114209;28;20377;-42
2023/09/27 12:02:23;;;;;;;;;;;19.30;99.90;;;;;;5114324;28;20030;-42
2023/09/27 12:04:48;;;;;;;;;;;19.30;99.90;;;;;;5114212;28;19980;-42
2023/09/27 12:07:14;;;;;;;;;;;19.30;99.90;;;;;;5116426;28;19967;-42
2023/09/27 12:09:40;;;;;;;;;;;19.40;99.90;;;;;;5118184;27;19924;-42
2023/09/27 12:12:06;;;;;;;;;;;19.40;99.90;;;;;;5118282;28;19924;-42
2023/09/27 12:14:32;;;;;;;;;;;19.40;99.90;;;;;;5117160;28;20405;-42
2023/09/27 12:16:57;;;;;;;;;;;19.50;99.90;;;;;;5118117;28;19924;-43
2023/09/27 12:19:23;;;;;;;;;;;19.70;99.90;;;;;;5118125;28;19932;-42
2023/09/27 12:21:49;;;;;;;;;;;19.70;99.90;;;;;;5118170;28;19924;-43
2023/09/27 12:24:15;;;;;;;;;;;19.80;99.90;;;;;;5117918;28;19992;-43
2023/09/27 12:26:41;;;;;;;;;;;19.90;99.90;;;;;;5117722;28;20010;-43
2023/09/27 12:29:07;;;;;;;;;;;20.00;99.90;;;;;;5117779;28;19966;-42
2023/09/27 12:31:33;;;;;;;;;;;20.20;99.90;;;;;;5117864;28;19928;-43
2023/09/27 12:33:59;;;;;;;;;;;20.40;99.90;;;;;;5117837;28;20019;-43
2023/09/27 12:36:25;;;;;;;;;;;20.40;99.90;;;;;;5118173;28;19928;-43
2023/09/27 12:38:53;;;;;;;;;;;20.40;99.90;;;;;;5117756;28;20332;-43
2023/09/27 12:41:22;;;;;;;;;;;20.40;99.90;;;;;;5117501;28;19935;-43
2023/09/27 12:43:47;;;;;;;;;;;20.50;99.90;;;;;;5117584;28;20439;-43
2023/09/27 12:46:14;;;;;;;;;;;20.60;99.90;;;;;;5118114;28;19924;-43
2023/09/27 12:48:39;;;;;;;;;;;20.60;99.90;;;;;;5116576;28;20394;-42
2023/09/27 12:51:05;;;;;;;;;;;20.70;99.90;;;;;;5117407;28;19924;-43
2023/09/27 12:53:31;;;;;;;;;;;20.70;99.90;;;;;;5117296;28;19924;-43
2023/09/27 12:55:57;;;;;;;;;;;20.80;99.90;;;;;;5117449;28;19924;-43
2023/09/27 12:58:22;;;;;;;;;;;20.90;99.90;;;;;;5117112;28;20033;-42
2023/09/27 13:00:48;;;;;;;;;;;20.90;99.90;;;;;;5117347;28;19929;-42
2023/09/27 13:03:13;;;;;;;;;;;21.00;99.90;;;;;;5117329;28;19928;-42
2023/09/27 13:05:39;;;;;;;;;;;21.10;99.90;;;;;;5117279;28;19923;-42
2023/09/27 13:08:05;;;;;;;;;;;21.20;99.90;;;;;;5117171;28;19993;-42
2023/09/27 13:10:32;;;;;;;;;;;21.20;99.90;;;;;;5117158;28;19928;-42
2023/09/27 13:12:58;;;;;;;;;;;21.30;99.90;;;;;;5116914;28;20380;-42
2023/09/27 13:15:24;;;;;;;;;;;21.30;99.90;;;;;;5117168;28;20381;-43
2023/09/27 13:17:50;;;;;;;;;;;21.20;99.90;;;;;;5116848;27;19924;-42
2023/09/27 13:20:16;;;;;;;;;;;21.20;99.90;;;;;;5117333;27;19924;-42
2023/09/27 13:22:41;;;;;;;;;;;21.10;99.90;;;;;;5116807;28;20298;-42
2023/09/27 13:25:07;;;;;;;;;;;21.10;99.90;;;;;;5116652;28;20290;-42
2023/09/27 13:27:33;;;;;;;;;;;21.10;99.90;;;;;;5115807;28;19940;-42
2023/09/27 13:29:59;;;;;;;;;;;21.10;99.90;;;;;;5116673;28;20036;-42
2023/09/27 13:32:24;;;;;;;;;;;21.10;99.90;;;;;;5117110;28;19930;-42
2023/09/27 13:34:50;;;;;;;;;;;21.10;99.90;;;;;;5116651;28;20390;-43
2023/09/27 13:37:19;;;;;;;;;;;21.10;99.90;;;;;;5116486;28;19928;-42
2023/09/27 13:39:45;;;;;;;;;;;21.00;99.90;;;;;;5116384;28;20375;-42
2023/09/27 13:42:11;;;;;;;;;;;21.10;99.90;;;;;;5116445;28;19923;-43
2023/09/27 13:44:36;;;;;;;;;;;21.10;99.90;;;;;;5116426;28;19928;-42
2023/09/27 13:47:02;;;;;;;;;;;21.20;99.90;;;;;;5116405;28;19923;-42
2023/09/27 13:49:28;;;;;;;;;;;21.20;99.90;;;;;;5116328;28;20329;-42
2023/09/27 13:51:53;;;;;;;;;;;21.30;99.90;;;;;;5116145;28;19932;-43
2023/09/27 13:54:19;;;;;;;;;;;21.30;99.90;;;;;;5116291;28;19969;-42
2023/09/27 13:56:45;;;;;;;;;;;21.40;99.90;;;;;;5116090;28;20251;-42
2023/09/27 13:59:10;;;;;;;;;;;21.40;99.90;;;;;;5116225;28;19927;-42
2023/09/27 14:01:36;;;;;;;;;;;21.40;99.90;;;;;;5116252;28;19931;-43
2023/09/27 14:04:03;;;;;;;;;;;21.50;99.90;;;;;;5116088;28;20386;-42
2023/09/27 14:06:30;;;;;;;;;;;21.40;99.90;;;;;;5116081;28;19924;-42
2023/09/27 14:08:56;;;;;;;;;;;21.50;99.90;;;;;;5114807;28;19924;-42
2023/09/27 14:11:22;;;;;;;;;;;21.40;99.90;;;;;;5115670;28;19946;-42
2023/09/27 14:13:47;;;;;;;;;;;21.30;99.90;;;;;;5115620;28;20359;-42